Time;durP1;ratioP1;P1;durP2;ratioP2;P2;SDS_P1;SDS_P2;PMS_P1;PMS_P2;Temp;Humidity;BMP_temperature;BMP_pressure;BME280_temperature;BME280_humidity;BME280_pressure;Samples;Min_cycle;Max_cycle;Signal;HPM_P1;HPM_P2
2022/08/17 00:00:43;;;;;;;;;;;17.10;97.60;;;;;;5027061;28;20037;-32
2022/08/17 00:03:16;;;;;;;6.07;5.28;;;17.00;99.90;;;;;;5027946;28;20290;-37
2022/08/17 00:05:51;;;;;;;5.07;4.47;;;17.00;99.90;;;;;;5021270;28;20029;-35
2022/08/17 00:08:20;;;;;;;5.95;4.68;;;16.60;99.90;;;;;;5030138;28;20033;-33
2022/08/17 00:10:47;;;;;;;7.63;5.40;;;16.50;99.90;;;;;;5034724;28;20025;-34
2022/08/17 00:13:18;;;;;;;7.00;5.03;;;16.50;99.90;;;;;;5033645;28;20040;-32
2022/08/17 00:15:44;;;;;;;7.32;5.45;;;16.50;99.90;;;;;;5027294;28;20027;-32
2022/08/17 00:18:10;;;;;;;6.47;5.30;;;16.60;99.90;;;;;;5021825;28;20041;-35
2022/08/17 00:20:36;;;;;;;5.65;4.70;;;16.60;99.90;;;;;;5024651;28;20139;-33
2022/08/17 00:23:14;;;;;;;5.00;4.50;;;16.60;99.90;;;;;;5035335;28;20385;-33
2022/08/17 00:25:44;;;;;;;4.85;4.38;;;16.70;99.50;;;;;;5030510;28;20029;-33
2022/08/17 00:28:11;;;;;;;6.75;4.72;;;16.60;99.90;;;;;;5030238;28;20033;-33
2022/08/17 00:30:37;;;;;;;4.13;3.72;;;16.60;99.90;;;;;;5035047;28;20034;-34
2022/08/17 00:33:09;;;;;;;6.22;4.38;;;16.50;99.60;;;;;;5023125;28;20049;-36
2022/08/17 00:35:36;;;;;;;6.35;5.15;;;16.50;99.70;;;;;;5030863;28;20037;-34
2022/08/17 00:38:03;;;;;;;6.32;4.63;;;16.50;99.90;;;;;;5030094;28;20070;-35
2022/08/17 00:40:29;;;;;;;5.68;5.10;;;16.50;99.90;;;;;;5033314;28;20680;-35
2022/08/17 00:42:55;;;;;;;6.97;5.20;;;16.50;99.90;;;;;;5020965;28;20030;-36
2022/08/17 00:45:21;;;;;;;5.25;4.63;;;16.50;99.80;;;;;;5020267;28;22112;-33
2022/08/17 00:47:48;;;;;;;7.22;4.70;;;16.50;99.80;;;;;;5020563;28;20490;-36
2022/08/17 00:50:16;;;;;;;6.82;5.05;;;16.50;99.60;;;;;;5021556;28;20025;-36
2022/08/17 00:52:54;;;;;;;10.20;4.70;;;16.50;99.90;;;;;;5022382;28;20142;-34
2022/08/17 00:55:22;;;;;;;5.28;4.78;;;16.50;99.90;;;;;;5030914;28;20045;-34
2022/08/17 00:57:52;;;;;;;7.38;5.53;;;16.50;99.90;;;;;;5017694;28;20522;-34
2022/08/17 01:00:28;;;;;;;6.60;4.70;;;16.10;99.90;;;;;;5020790;28;20122;-35
2022/08/17 01:02:58;;;;;;;5.22;4.50;;;15.30;99.90;;;;;;5018869;28;20128;-36
2022/08/17 01:05:27;;;;;;;7.03;5.13;;;15.30;99.90;;;;;;5019872;28;20030;-35
2022/08/17 01:07:52;;;;;;;;;;;15.50;99.90;;;;;;5020966;28;20033;-34
2022/08/17 01:10:27;;;;;;;5.72;5.07;;;15.50;99.90;;;;;;5020009;28;20000;-34
2022/08/17 01:12:53;;;;;;;5.70;5.00;;;15.50;99.90;;;;;;5019431;28;20033;-36
2022/08/17 01:15:19;;;;;;;5.20;4.70;;;15.60;99.90;;;;;;5022451;28;20092;-36
2022/08/17 01:17:45;;;;;;;6.03;5.05;;;15.70;99.90;;;;;;5022389;28;20041;-36
2022/08/17 01:20:11;;;;;;;6.68;5.38;;;15.70;99.90;;;;;;5033686;28;20667;-36
2022/08/17 01:22:37;;;;;;;5.68;5.07;;;15.80;99.90;;;;;;5027954;28;20044;-33
2022/08/17 01:25:06;;;;;;;6.60;5.10;;;15.80;99.90;;;;;;5026095;28;20462;-33
2022/08/17 01:27:34;;;;;;;6.25;5.65;;;15.90;99.90;;;;;;5027716;28;20028;-32
2022/08/17 01:30:04;;;;;;;6.72;4.82;;;15.90;99.90;;;;;;5024125;28;20104;-37
2022/08/17 01:32:30;;;;;;;5.72;5.22;;;15.90;99.90;;;;;;5030559;28;20037;-32
2022/08/17 01:34:59;;;;;;;5.65;5.13;;;15.90;99.90;;;;;;5023274;28;20044;-32
2022/08/17 01:37:38;;;;;;;7.93;5.15;;;15.90;99.90;;;;;;5024333;28;20465;-34
2022/08/17 01:40:34;;;;;;;6.30;4.80;;;15.90;99.90;;;;;;5017612;28;20029;-33
2022/08/17 01:43:18;;;;;;;7.65;4.97;;;15.90;99.90;;;;;;5016121;28;20041;-35
2022/08/17 01:45:47;;;;;;;6.40;4.93;;;15.80;99.90;;;;;;5016507;28;20025;-33
2022/08/17 01:48:13;;;;;;;5.00;4.20;;;15.80;99.90;;;;;;5017764;28;20628;-37
2022/08/17 01:50:42;;;;;;;6.75;4.90;;;15.60;99.90;;;;;;5018350;28;20035;-34
2022/08/17 01:53:24;;;;;;;5.93;5.32;;;15.50;99.90;;;;;;5020965;28;20103;-33
2022/08/17 01:56:03;;;;;;;5.32;4.57;;;15.60;99.90;;;;;;5018496;28;20034;-35
2022/08/17 01:58:30;;;;;;;6.20;4.80;;;15.60;99.90;;;;;;5019675;28;20029;-32
2022/08/17 02:00:56;;;;;;;5.82;5.22;;;15.60;99.90;;;;;;5019759;28;20040;-34
2022/08/17 02:03:23;;;;;;;5.43;4.85;;;15.60;99.90;;;;;;5019156;28;20038;-33
2022/08/17 02:05:49;;;;;;;5.30;4.80;;;15.60;99.90;;;;;;5021756;28;20028;-35
2022/08/17 02:08:16;;;;;;;6.32;4.85;;;15.60;99.90;;;;;;5018493;28;20064;-38
2022/08/17 02:10:44;;;;;;;5.43;4.75;;;15.60;99.90;;;;;;5020632;28;20052;-35
2022/08/17 02:13:10;;;;;;;4.72;4.28;;;15.60;99.90;;;;;;5017348;28;20731;-34
2022/08/17 02:15:36;;;;;;;2.92;2.72;;;15.70;99.90;;;;;;5019741;28;20053;-35
2022/08/17 02:18:02;;;;;;;2.50;2.30;;;15.70;99.90;;;;;;5017145;28;20057;-35
2022/08/17 02:20:30;;;;;;;2.80;2.60;;;15.60;99.90;;;;;;5018239;28;20080;-34
2022/08/17 02:23:00;;;;;;;4.65;4.25;;;15.50;99.90;;;;;;5017565;28;20033;-32
2022/08/17 02:25:29;;;;;;;6.05;4.43;;;15.50;99.90;;;;;;5016978;28;20025;-37
2022/08/17 02:27:54;;;;;;;4.60;3.80;;;15.50;99.90;;;;;;5018809;28;20038;-33
2022/08/17 02:30:20;;;;;;;4.72;4.32;;;15.50;99.90;;;;;;5018383;28;21114;-37
2022/08/17 02:32:46;;;;;;;5.20;4.28;;;15.50;99.90;;;;;;5020594;28;20033;-36
2022/08/17 02:35:12;;;;;;;5.63;5.03;;;15.50;99.90;;;;;;5018784;28;20044;-33
2022/08/17 02:37:38;;;;;;;6.60;5.88;;;15.50;99.90;;;;;;5016748;28;20044;-33
2022/08/17 02:40:05;;;;;;;6.95;6.25;;;15.40;99.90;;;;;;5018771;28;20106;-36
2022/08/17 02:42:38;;;;;;;6.90;5.43;;;15.40;99.90;;;;;;5020596;28;20904;-36
2022/08/17 02:45:09;;;;;;;6.68;5.63;;;15.40;99.90;;;;;;5021074;28;20425;-35
2022/08/17 02:47:36;;;;;;;5.57;5.07;;;15.40;99.90;;;;;;5017738;28;20748;-35
2022/08/17 02:50:02;;;;;;;4.95;4.45;;;15.50;99.90;;;;;;5023055;28;20034;-33
2022/08/17 02:52:39;;;;;;;7.00;4.80;;;15.50;99.90;;;;;;5023566;28;20036;-36
2022/08/17 02:55:29;;;;;;;5.60;5.05;;;15.40;99.90;;;;;;5021008;28;20088;-35
2022/08/17 02:57:55;;;;;;;6.63;4.82;;;15.50;99.90;;;;;;5016830;28;20376;-35
2022/08/17 03:00:27;;;;;;;6.45;4.40;;;15.40;99.90;;;;;;5020006;28;20042;-33
2022/08/17 03:02:55;;;;;;;7.55;4.63;;;15.40;99.90;;;;;;5018110;28;20124;-35
2022/08/17 03:05:24;;;;;;;6.07;4.90;;;15.40;99.90;;;;;;5021094;28;20022;-34
2022/08/17 03:07:50;;;;;;;5.28;4.78;;;15.40;99.90;;;;;;5021490;28;20060;-35
2022/08/17 03:10:16;;;;;;;7.68;5.28;;;15.40;99.90;;;;;;5028036;28;20029;-35
2022/08/17 03:12:43;;;;;;;6.05;4.57;;;15.30;99.90;;;;;;5031815;28;20029;-33
2022/08/17 03:15:15;;;;;;;5.78;3.92;;;15.30;99.90;;;;;;5034112;28;20057;-34
2022/08/17 03:17:42;;;;;;;4.03;3.50;;;15.30;99.90;;;;;;5029546;28;20418;-36
2022/08/17 03:20:08;;;;;;;5.00;3.95;;;15.30;99.90;;;;;;5030700;28;20418;-33
2022/08/17 03:22:42;;;;;;;4.03;3.58;;;15.30;99.90;;;;;;5023211;28;20087;-33
2022/08/17 03:25:10;;;;;;;3.33;3.00;;;15.20;99.90;;;;;;5028892;28;20036;-33
2022/08/17 03:27:37;;;;;;;4.20;3.80;;;15.00;99.90;;;;;;5034216;28;20475;-33
2022/08/17 03:30:06;;;;;;;5.18;4.50;;;14.80;99.90;;;;;;5029093;28;20030;-34
2022/08/17 03:32:37;;;;;;;5.03;4.32;;;14.80;99.90;;;;;;5033802;28;20146;-39
2022/08/17 03:35:04;;;;;;;6.32;4.82;;;14.80;99.90;;;;;;5033952;28;20033;-33
2022/08/17 03:37:29;;;;;;;6.55;5.03;;;14.90;99.90;;;;;;5036199;28;20068;-37
2022/08/17 03:39:55;;;;;;;6.63;5.38;;;15.00;99.90;;;;;;5023251;28;20529;-32
2022/08/17 03:42:25;;;;;;;12.73;6.05;;;14.90;99.90;;;;;;5026352;28;20033;-33
2022/08/17 03:44:53;;;;;;;5.65;5.05;;;14.70;99.90;;;;;;5031168;28;20061;-34
2022/08/17 03:58:18;;;;;;;6.60;4.75;;;14.20;99.90;;;;;;5016388;28;20533;-33
2022/08/17 04:00:44;;;;;;;6.78;4.72;;;14.20;99.90;;;;;;5016181;28;20029;-36
2022/08/17 04:03:10;;;;;;;6.55;5.68;;;14.20;99.90;;;;;;5020648;28;20148;-32
2022/08/17 04:05:36;;;;;;;6.18;5.20;;;14.30;99.90;;;;;;5016281;28;20493;-37
2022/08/17 04:08:02;;;;;;;7.03;4.70;;;14.30;99.90;;;;;;5016866;28;20973;-34
2022/08/17 04:10:29;;;;;;;9.25;5.68;;;14.50;99.90;;;;;;5017721;28;20061;-36
2022/08/17 04:12:54;;;;;;;6.93;5.47;;;14.50;99.90;;;;;;5015839;28;20104;-35
2022/08/17 04:15:21;;;;;;;6.35;5.60;;;14.50;99.90;;;;;;5016697;28;20037;-37
2022/08/17 04:17:47;;;;;;;6.47;5.40;;;14.50;99.90;;;;;;5015489;28;20073;-34
2022/08/17 04:20:15;;;;;;;5.38;4.75;;;14.60;99.90;;;;;;5017829;28;20860;-34
2022/08/17 04:23:03;;;;;;;8.77;5.03;;;14.60;99.90;;;;;;5018061;28;20483;-33
2022/08/17 04:25:32;;;;;;;7.05;4.70;;;14.60;99.90;;;;;;5015783;28;20033;-36
2022/08/17 04:27:58;;;;;;;;;;;14.70;99.90;;;;;;5018171;28;20400;-33
2022/08/17 04:30:25;;;;;;;6.18;4.80;;;14.70;99.90;;;;;;5014761;28;20363;-33
2022/08/17 04:32:54;;;;;;;4.22;3.92;;;14.70;99.90;;;;;;5016142;28;20037;-33
2022/08/17 04:35:23;;;;;;;4.95;4.47;;;14.30;99.90;;;;;;5017469;28;20697;-33
2022/08/17 04:37:49;;;;;;;4.95;4.45;;;14.30;99.90;;;;;;5013646;28;20076;-34
2022/08/17 04:43:10;;;;;;;6.68;5.65;;;14.20;99.90;;;;;;5016004;28;20140;-35
2022/08/17 04:45:44;;;;;;;6.05;5.07;;;14.30;99.90;;;;;;5019664;28;20034;-32
2022/08/17 04:48:10;;;;;;;8.48;5.18;;;14.50;99.90;;;;;;5025610;28;20025;-32
2022/08/17 04:50:49;;;;;;;7.25;6.22;;;14.60;99.90;;;;;;5016165;28;20044;-33
2022/08/17 04:53:16;;;;;;;8.00;6.45;;;14.70;99.90;;;;;;5018564;28;20447;-34
2022/08/17 04:55:43;;;;;;;9.88;6.10;;;14.70;99.90;;;;;;5016833;28;20447;-35
2022/08/17 04:58:08;;;;;;;9.35;6.20;;;14.80;99.90;;;;;;5015575;28;20060;-34
2022/08/17 05:00:35;;;;;;;7.72;5.68;;;14.70;99.90;;;;;;5015073;28;20096;-38
2022/08/17 05:03:01;;;;;;;8.85;5.88;;;14.50;99.90;;;;;;5015479;28;20516;-33
2022/08/17 05:05:33;;;;;;;7.85;6.22;;;14.40;99.90;;;;;;5020375;28;20091;-36
2022/08/17 05:08:00;;;;;;;10.43;6.55;;;14.10;99.90;;;;;;5017251;28;20667;-33
2022/08/17 05:10:29;;;;;;;8.13;5.95;;;14.00;99.90;;;;;;5016165;28;20025;-36
2022/08/17 05:13:00;;;;;;;8.15;5.57;;;13.90;99.90;;;;;;5018093;28;20025;-36
2022/08/17 05:15:28;;;;;;;5.82;5.25;;;13.90;99.90;;;;;;5018572;28;20035;-36
2022/08/17 05:17:53;;;;;;;7.97;5.30;;;13.80;99.90;;;;;;5017087;28;20775;-34
2022/08/17 05:20:20;;;;;;;6.03;5.40;;;13.90;99.90;;;;;;5017590;28;20310;-35
2022/08/17 05:22:54;;;;;;;7.55;5.55;;;14.20;99.90;;;;;;5016332;28;20687;-35
2022/08/17 05:25:27;;;;;;;7.13;6.30;;;14.40;99.90;;;;;;5021035;28;20164;-34
2022/08/17 05:27:54;;;;;;;10.20;6.15;;;14.50;99.90;;;;;;5016520;28;20036;-36
2022/08/17 05:30:20;;;;;;;7.40;5.97;;;14.60;99.90;;;;;;5012035;28;20034;-36
2022/08/17 05:33:00;;;;;;;8.20;6.22;;;14.70;99.90;;;;;;5016403;28;20036;-35
2022/08/17 05:35:30;;;;;;;6.95;6.20;;;14.80;99.90;;;;;;5017027;28;20029;-37
2022/08/17 05:37:56;;;;;;;10.80;6.20;;;14.70;99.90;;;;;;5014279;28;20030;-35
2022/08/17 05:40:22;;;;;;;9.55;6.05;;;14.50;99.90;;;;;;5019247;28;20037;-34
2022/08/17 05:42:48;;;;;;;8.70;6.30;;;14.50;99.90;;;;;;5022990;28;20028;-32
2022/08/17 05:45:17;;;;;;;10.15;7.05;;;14.60;99.90;;;;;;5018138;28;20032;-34
2022/08/17 05:47:44;;;;;;;10.85;7.03;;;14.70;99.90;;;;;;5019285;28;20032;-33
2022/08/17 05:50:19;;;;;;;9.55;7.00;;;14.80;99.90;;;;;;5020714;28;20530;-32
2022/08/17 05:53:29;;;;;;;9.68;6.95;;;15.10;99.90;;;;;;5018090;28;20108;-37
2022/08/17 05:56:30;;;;;;;8.65;7.32;;;15.40;99.90;;;;;;5009006;28;20071;-34
2022/08/17 05:59:25;;;;;;;12.02;6.88;;;15.70;99.90;;;;;;4978134;28;20040;-33
2022/08/17 06:02:16;;;;;;;12.90;7.25;;;15.70;99.90;;;;;;5021233;28;20037;-32
2022/08/17 06:05:03;;;;;;;11.90;6.95;;;15.90;99.90;;;;;;5028397;28;20040;-34
2022/08/17 06:07:33;;;;;;;12.20;7.43;;;16.10;99.90;;;;;;5025153;28;20026;-33
2022/08/17 06:09:58;;;;;;;11.07;7.78;;;16.20;99.90;;;;;;5028201;28;20718;-32
2022/08/17 06:12:35;;;;;;;15.40;8.05;;;16.40;99.90;;;;;;5018029;28;20033;-34
2022/08/17 06:15:24;;;;;;;10.40;7.93;;;16.60;99.90;;;;;;5026562;28;20037;-32
2022/08/17 06:17:55;;;;;;;8.38;6.55;;;16.70;99.90;;;;;;5034988;28;20083;-37
2022/08/17 06:20:22;;;;;;;9.93;7.15;;;17.00;99.90;;;;;;5025223;28;20144;-35
2022/08/17 06:22:52;;;;;;;11.52;7.10;;;17.20;99.90;;;;;;5027749;28;20041;-33
2022/08/17 06:25:45;;;;;;;10.90;6.55;;;17.60;99.90;;;;;;5023555;28;20385;-34
2022/08/17 06:28:15;;;;;;;11.85;7.30;;;17.90;99.90;;;;;;5024816;28;20060;-34
2022/08/17 06:30:48;;;;;;;7.82;6.95;;;18.10;99.90;;;;;;5047391;28;20036;-33
2022/08/17 06:33:22;;;;;;;7.82;6.75;;;18.30;99.90;;;;;;5037083;28;20553;-35
2022/08/17 06:36:18;;;;;;;10.38;6.57;;;18.40;99.90;;;;;;5034764;28;20060;-32
2022/08/17 06:39:01;;;;;;;10.45;6.75;;;18.70;99.90;;;;;;5031939;28;20021;-32
2022/08/17 06:42:02;;;;;;;10.35;7.22;;;18.90;99.90;;;;;;5033795;28;20445;-33
2022/08/17 06:44:33;;;;;;;11.15;7.88;;;19.00;99.90;;;;;;5016947;28;20517;-34
2022/08/17 06:47:08;;;;;;;9.18;7.20;;;19.00;99.90;;;;;;5022419;28;20112;-32
2022/08/17 06:49:50;;;;;;;8.95;7.47;;;19.10;99.90;;;;;;5023073;28;20124;-34
2022/08/17 06:52:23;;;;;;;9.18;7.03;;;19.20;99.90;;;;;;5018860;28;20053;-35
2022/08/17 06:55:08;;;;;;;10.30;8.60;;;19.30;99.40;;;;;;5019511;28;20029;-38
2022/08/17 06:57:42;;;;;;;10.77;7.18;;;19.30;99.60;;;;;;5020172;28;20104;-37
2022/08/17 07:00:13;;;;;;;10.10;8.55;;;19.50;99.70;;;;;;5017784;28;20116;-32
2022/08/17 07:03:19;;;;;;;9.43;8.43;;;19.50;99.90;;;;;;5023639;28;20982;-38
2022/08/17 07:05:55;;;;;;;11.05;8.48;;;19.60;98.70;;;;;;4972026;28;20027;-35
2022/08/17 07:08:55;;;;;;;8.00;7.13;;;19.80;97.80;;;;;;5015375;28;20139;-36
2022/08/17 07:11:32;;;;;;;8.57;7.40;;;20.00;97.70;;;;;;5018109;28;20043;-34
2022/08/17 07:14:16;;;;;;;8.30;6.68;;;20.00;96.20;;;;;;5020365;28;20071;-33
2022/08/17 07:16:46;;;;;;;9.50;7.85;;;20.30;95.10;;;;;;5016711;28;20034;-33
2022/08/17 07:19:15;;;;;;;8.00;6.75;;;20.50;94.30;;;;;;5024291;28;20509;-34
2022/08/17 07:22:16;;;;;;;8.18;7.22;;;20.50;93.30;;;;;;5028401;28;20107;-33
2022/08/17 07:24:57;;;;;;;7.28;6.28;;;20.50;93.00;;;;;;5023294;28;20045;-34
2022/08/17 07:27:36;;;;;;;7.90;6.78;;;20.30;94.20;;;;;;5032188;28;20032;-33
2022/08/17 07:30:15;;;;;;;9.88;7.20;;;20.60;94.30;;;;;;5025464;28;20151;-35
2022/08/17 07:32:44;;;;;;;10.38;6.45;;;20.70;93.40;;;;;;5027677;28;20061;-34
2022/08/17 07:35:14;;;;;;;7.65;6.40;;;21.00;93.90;;;;;;5032579;28;20161;-33
2022/08/17 07:37:51;;;;;;;7.75;6.45;;;21.30;92.00;;;;;;5030683;28;20027;-32
2022/08/17 07:40:27;;;;;;;8.50;5.70;;;21.50;91.60;;;;;;5031137;28;20056;-33
2022/08/17 07:43:03;;;;;;;7.32;6.63;;;21.80;90.40;;;;;;5036263;28;20034;-33
2022/08/17 07:48:25;;;;;;;7.35;5.90;;;22.20;88.40;;;;;;5036326;28;20122;-34
2022/08/17 07:50:53;;;;;;;6.70;6.00;;;22.50;87.50;;;;;;5035830;28;20021;-34
2022/08/17 07:53:23;;;;;;;6.38;5.70;;;22.60;85.80;;;;;;5029351;28;20037;-32
2022/08/17 07:55:50;;;;;;;7.78;5.43;;;22.70;82.40;;;;;;5062159;28;20040;-32
2022/08/17 07:58:18;;;;;;;8.23;5.75;;;23.00;82.10;;;;;;5033177;28;20111;-34
2022/08/17 08:00:45;;;;;;;7.00;5.68;;;23.10;79.30;;;;;;5031969;28;20041;-37
2022/08/17 08:03:26;;;;;;;7.50;5.60;;;23.20;77.50;;;;;;5061468;28;20503;-31
2022/08/17 08:05:59;;;;;;;7.13;5.13;;;23.40;78.40;;;;;;5026865;28;20087;-33
2022/08/17 08:08:42;;;;;;;6.40;5.80;;;23.80;76.90;;;;;;5030761;28;20471;-33
2022/08/17 08:11:14;;;;;;;7.43;6.00;;;24.00;73.40;;;;;;5033842;28;20107;-34
2022/08/17 08:13:42;;;;;;;7.50;5.97;;;24.00;71.80;;;;;;5031407;28;20037;-33
2022/08/17 08:16:27;;;;;;;7.18;5.38;;;24.00;73.10;;;;;;5033318;28;20033;-35
2022/08/17 08:18:57;;;;;;;7.75;5.85;;;24.00;70.60;;;;;;5033920;28;20031;-33
2022/08/17 08:21:48;;;;;;;5.13;4.63;;;24.00;70.80;;;;;;5030541;28;20073;-36
2022/08/17 08:24:37;;;;;;;6.72;6.13;;;24.20;73.30;;;;;;5032314;28;20517;-33
2022/08/17 08:27:17;;;;;;;7.32;5.45;;;24.50;68.60;;;;;;5030774;28;20830;-32
2022/08/17 08:30:03;;;;;;;7.10;5.95;;;24.50;68.70;;;;;;5030046;28;20041;-31
2022/08/17 08:33:07;;;;;;;6.78;5.22;;;24.90;70.40;;;;;;5035809;28;20120;-34
2022/08/17 08:35:47;;;;;;;6.60;5.47;;;25.00;70.40;;;;;;5062195;28;20484;-34
2022/08/17 08:38:37;;;;;;;6.45;5.43;;;25.00;66.00;;;;;;5030961;28;20122;-32
2022/08/17 08:41:21;;;;;;;6.88;5.13;;;25.10;67.00;;;;;;5030619;28;20028;-36
2022/08/17 08:44:32;;;;;;;5.18;4.70;;;25.20;64.00;;;;;;5028527;28;20079;-37
2022/08/17 08:47:07;;;;;;;5.43;4.80;;;25.40;61.90;;;;;;5028200;28;20657;-35
2022/08/17 08:49:52;;;;;;;5.28;4.75;;;25.40;64.10;;;;;;5040957;28;20018;-32
2022/08/17 08:52:38;;;;;;;6.25;4.63;;;25.60;60.70;;;;;;5026928;28;20044;-32
2022/08/17 08:55:41;;;;;;;6.40;4.32;;;26.30;59.90;;;;;;5033359;28;20041;-32
2022/08/17 08:58:15;;;;;;;5.53;4.10;;;26.70;56.70;;;;;;5028583;28;20123;-32
2022/08/17 09:00:47;;;;;;;5.32;4.60;;;26.60;56.90;;;;;;5028582;28;20037;-35
2022/08/17 09:03:32;;;;;;;4.85;3.90;;;26.80;52.30;;;;;;5034370;28;20061;-32
2022/08/17 09:06:35;;;;;;;4.40;4.00;;;26.60;54.20;;;;;;5033044;28;20482;-33
2022/08/17 09:09:38;;;;;;;4.45;4.05;;;26.80;48.60;;;;;;5034375;28;20055;-33
2022/08/17 09:12:42;;;;;;;6.32;3.92;;;26.80;51.40;;;;;;5029974;28;20398;-32
2022/08/17 09:15:33;;;;;;;4.47;4.07;;;27.30;52.00;;;;;;5034296;28;20075;-32
2022/08/17 09:18:01;;;;;;;5.70;3.88;;;27.70;49.80;;;;;;5032694;28;20110;-34
2022/08/17 09:20:32;;;;;;;4.22;3.83;;;27.30;49.70;;;;;;5037801;28;20056;-34
2022/08/17 09:23:18;;;;;;;4.10;3.70;;;27.60;50.40;;;;;;5034130;28;20036;-33
2022/08/17 09:26:16;;;;;;;4.05;3.63;;;27.60;49.30;;;;;;5029324;28;20033;-33
2022/08/17 09:28:49;;;;;;;4.07;3.60;;;27.50;45.30;;;;;;5029293;28;20049;-32
2022/08/17 09:31:20;;;;;;;3.75;3.45;;;27.50;47.60;;;;;;5028551;28;20035;-36
2022/08/17 09:33:47;;;;;;;4.50;3.65;;;27.50;45.40;;;;;;5029593;28;20410;-32
2022/08/17 09:36:24;;;;;;;4.10;3.70;;;27.60;47.50;;;;;;5031907;28;20040;-34
2022/08/17 09:39:12;;;;;;;8.43;3.87;;;27.70;45.90;;;;;;5032699;28;20030;-32
2022/08/17 09:41:59;;;;;;;5.32;3.35;;;28.00;45.70;;;;;;5029000;28;21488;-33
2022/08/17 09:44:24;;;;;;;;;;;27.90;45.70;;;;;;5034190;28;20029;-33
2022/08/17 09:47:20;;;;;;;4.60;3.75;;;27.90;47.50;;;;;;5033978;28;19967;-35
2022/08/17 09:49:52;;;;;;;4.05;3.50;;;28.00;44.70;;;;;;5030586;28;20057;-35
2022/08/17 09:52:23;;;;;;;3.80;3.45;;;27.90;43.70;;;;;;5033594;28;20017;-32
2022/08/17 09:54:53;;;;;;;3.60;3.28;;;28.10;43.30;;;;;;5027278;28;20486;-34
2022/08/17 09:57:22;;;;;;;7.13;3.60;;;28.10;42.50;;;;;;5028775;28;20035;-34
2022/08/17 10:00:07;;;;;;;6.22;3.38;;;28.40;42.80;;;;;;5032226;28;20049;-33
2022/08/17 10:02:43;;;;;;;3.17;2.90;;;28.10;40.90;;;;;;5029714;28;20082;-34
2022/08/17 10:05:20;;;;;;;3.58;3.28;;;27.90;41.90;;;;;;5028593;28;20037;-35
2022/08/17 10:07:54;;;;;;;3.72;3.08;;;28.10;43.30;;;;;;5030354;28;20036;-33
2022/08/17 10:10:28;;;;;;;3.63;3.33;;;28.40;42.40;;;;;;5032226;28;20690;-34
2022/08/17 10:13:01;;;;;;;5.45;3.63;;;28.70;42.80;;;;;;5033317;28;20021;-35
2022/08/17 10:16:03;;;;;;;3.83;3.15;;;28.80;42.80;;;;;;5036417;28;20033;-32
2022/08/17 10:18:36;;;;;;;3.63;3.17;;;28.40;41.60;;;;;;5032095;28;20528;-34
2022/08/17 10:27:00;;;;;;;3.88;3.17;;;28.20;41.10;;;;;;5032812;28;20091;-32
2022/08/17 10:29:43;;;;;;;3.28;2.97;;;28.10;41.20;;;;;;5027544;28;20092;-32
2022/08/17 10:32:15;;;;;;;4.30;3.35;;;28.10;41.50;;;;;;5033855;28;20119;-33
2022/08/17 10:34:43;;;;;;;4.85;3.42;;;28.00;44.40;;;;;;5030841;28;20037;-32
2022/08/17 10:37:09;;;;;;;3.47;3.00;;;28.00;43.30;;;;;;5034016;28;20025;-33
2022/08/17 10:39:56;;;;;;;2.95;2.65;;;28.10;41.80;;;;;;5028233;28;20052;-32
2022/08/17 10:42:33;;;;;;;4.30;3.20;;;28.20;43.50;;;;;;5032649;28;20048;-32
2022/08/17 10:45:28;;;;;;;4.78;2.90;;;28.30;41.80;;;;;;5036602;28;20033;-34
2022/08/17 10:48:02;;;;;;;5.88;3.10;;;27.90;40.00;;;;;;5034085;28;20025;-32
2022/08/17 10:50:54;;;;;;;3.33;3.00;;;28.00;41.60;;;;;;5028538;28;20029;-32
2022/08/17 10:53:31;;;;;;;3.42;3.13;;;28.10;41.20;;;;;;5031099;28;20024;-32
2022/08/17 10:56:21;;;;;;;5.43;3.42;;;28.20;41.90;;;;;;5037123;28;20028;-32
2022/08/17 10:58:54;;;;;;;7.68;3.15;;;28.00;41.20;;;;;;5048627;28;20529;-33
2022/08/17 11:01:56;;;;;;;6.88;3.10;;;28.10;42.10;;;;;;5033677;28;20030;-36
2022/08/17 11:04:37;;;;;;;6.82;3.40;;;28.00;41.60;;;;;;5029006;28;20041;-37
2022/08/17 11:07:19;;;;;;;3.67;3.30;;;28.10;43.00;;;;;;5031607;28;20103;-37
2022/08/17 11:10:06;;;;;;;3.78;3.42;;;28.20;41.80;;;;;;5028275;28;20021;-34
2022/08/17 11:12:47;;;;;;;6.35;3.10;;;28.40;40.10;;;;;;5028907;28;20033;-32
2022/08/17 11:15:43;;;;;;;4.18;3.22;;;28.60;42.10;;;;;;5037536;28;20028;-35
2022/08/17 11:18:09;;;;;;;4.13;3.05;;;28.90;40.00;;;;;;5034902;28;20025;-33
2022/08/17 11:20:59;;;;;;;6.13;3.40;;;28.90;39.40;;;;;;5031418;28;20053;-33
2022/08/17 11:23:39;;;;;;;4.05;3.30;;;28.90;39.90;;;;;;5036466;28;20378;-32
2022/08/17 11:26:39;;;;;;;6.10;3.28;;;29.10;40.70;;;;;;5035345;28;20032;-32
2022/08/17 11:29:19;;;;;;;4.18;3.05;;;28.80;39.20;;;;;;5037164;28;20029;-34
2022/08/17 11:32:10;;;;;;;3.47;2.88;;;28.60;40.20;;;;;;5034357;28;20029;-32
2022/08/17 11:34:38;;;;;;;4.18;3.30;;;29.00;41.90;;;;;;5036167;28;20068;-36
2022/08/17 11:37:19;;;;;;;4.93;3.15;;;29.30;43.00;;;;;;5031040;28;20451;-35
2022/08/17 11:40:05;;;;;;;3.50;3.20;;;29.60;41.40;;;;;;5028980;28;20061;-37
2022/08/17 11:42:48;;;;;;;3.53;3.22;;;29.80;39.80;;;;;;5040835;28;20448;-32
2022/08/17 11:45:22;;;;;;;2.95;2.75;;;29.70;36.90;;;;;;5031647;28;20820;-35
2022/08/17 11:53:36;;;;;;;3.13;2.92;;;29.40;39.40;;;;;;5029416;28;20043;-32
2022/08/17 11:56:05;;;;;;;4.93;2.75;;;29.60;38.60;;;;;;5034332;28;20029;-33
2022/08/17 11:58:44;;;;;;;2.92;2.72;;;29.70;38.60;;;;;;5033134;28;20039;-33
2022/08/17 12:01:55;;;;;;;3.38;3.08;;;29.90;38.40;;;;;;5036899;28;20040;-35
2022/08/17 12:04:21;;;;;;;3.15;2.85;;;30.00;38.70;;;;;;5032895;28;20159;-33
2022/08/17 12:06:56;;;;;;;3.08;2.88;;;30.10;38.30;;;;;;5038577;28;20033;-32
2022/08/17 12:09:25;;;;;;;3.72;2.83;;;30.20;38.10;;;;;;5040213;28;20037;-32
2022/08/17 12:12:11;;;;;;;2.88;2.67;;;30.20;37.90;;;;;;5032197;28;20021;-32
2022/08/17 12:14:39;;;;;;;3.53;2.88;;;29.90;36.40;;;;;;5040712;28;20094;-32
2022/08/17 12:17:07;;;;;;;3.45;2.70;;;29.90;37.90;;;;;;5033628;28;20068;-34
2022/08/17 12:19:34;;;;;;;4.22;2.85;;;29.80;37.50;;;;;;5033447;28;20033;-34
2022/08/17 12:22:12;;;;;;;;;;;29.70;37.10;;;;;;5033978;28;20103;-35
2022/08/17 12:24:44;;;;;;;3.80;2.47;;;29.70;37.90;;;;;;5033251;28;19978;-33
2022/08/17 12:27:11;;;;;;;2.60;2.40;;;29.70;38.40;;;;;;5034198;28;20048;-33
2022/08/17 12:29:41;;;;;;;3.30;3.00;;;29.60;39.30;;;;;;5033655;28;20422;-35
2022/08/17 12:32:17;;;;;;;4.90;2.70;;;29.60;41.60;;;;;;5049817;28;20029;-32
2022/08/17 12:34:44;;;;;;;3.40;3.10;;;29.50;41.90;;;;;;5033431;28;20040;-34
2022/08/17 12:37:31;;;;;;;3.97;3.63;;;29.30;42.80;;;;;;5035781;28;20029;-33
2022/08/17 12:40:05;;;;;;;4.25;3.88;;;29.00;43.80;;;;;;5028168;28;20053;-33
2022/08/17 12:42:38;;;;;;;4.70;3.83;;;28.70;44.80;;;;;;5029558;28;20033;-37
2022/08/17 12:45:06;;;;;;;5.82;4.60;;;28.60;46.90;;;;;;5036339;28;20044;-33
2022/08/17 12:47:35;;;;;;;5.45;4.53;;;28.40;47.80;;;;;;5030608;28;20068;-32
2022/08/17 12:50:12;;;;;;;8.52;4.88;;;28.10;48.60;;;;;;5031603;28;20029;-36
2022/08/17 12:52:41;;;;;;;5.23;4.77;;;28.00;49.60;;;;;;5020637;28;20025;-33
2022/08/17 12:55:22;;;;;;;5.30;4.80;;;28.00;49.40;;;;;;5029702;28;20021;-33
2022/08/17 12:57:52;;;;;;;4.88;4.47;;;27.90;50.10;;;;;;5038020;28;20102;-36
2022/08/17 13:00:26;;;;;;;6.82;4.38;;;28.10;49.70;;;;;;5032194;28;20375;-34
2022/08/17 13:03:06;;;;;;;4.78;4.30;;;27.70;50.90;;;;;;5037497;28;20045;-33
2022/08/17 13:05:41;;;;;;;6.53;4.20;;;27.90;51.60;;;;;;5034680;28;20039;-34
2022/08/17 13:08:18;;;;;;;5.05;4.50;;;28.20;51.30;;;;;;5027629;28;20022;-34
2022/08/17 13:10:55;;;;;;;6.72;4.55;;;28.20;50.10;;;;;;5021727;28;20036;-35
2022/08/17 13:13:30;;;;;;;5.67;5.00;;;28.20;50.60;;;;;;5030346;28;20028;-34
2022/08/17 13:16:08;;;;;;;4.68;4.30;;;28.20;48.00;;;;;;5035698;28;20619;-35
2022/08/17 13:19:03;;;;;;;4.82;4.43;;;28.40;49.50;;;;;;5033006;28;20021;-34
2022/08/17 13:21:31;;;;;;;4.80;4.00;;;28.60;49.40;;;;;;5027904;28;20045;-33
2022/08/17 13:24:08;;;;;;;6.10;3.95;;;28.80;49.90;;;;;;5029976;28;20042;-34
2022/08/17 13:26:46;;;;;;;4.20;3.80;;;28.80;48.00;;;;;;5027886;28;20082;-32
2022/08/17 13:29:22;;;;;;;4.90;4.30;;;28.80;46.90;;;;;;5030745;28;20037;-34
2022/08/17 13:31:53;;;;;;;4.55;3.95;;;29.00;46.90;;;;;;5032974;28;20075;-36
2022/08/17 13:34:25;;;;;;;3.53;3.22;;;29.10;45.70;;;;;;5031459;28;20037;-32
2022/08/17 13:37:12;;;;;;;6.07;3.60;;;28.70;44.50;;;;;;5031931;28;20486;-32
2022/08/17 13:39:42;;;;;;;6.65;4.22;;;28.80;45.40;;;;;;5036800;28;20503;-35
2022/08/17 13:42:41;;;;;;;4.65;3.60;;;28.80;43.40;;;;;;5028057;28;20143;-35
2022/08/17 13:45:25;;;;;;;4.63;3.78;;;28.90;44.50;;;;;;5030183;28;20025;-36
2022/08/17 13:48:24;;;;;;;4.80;3.72;;;29.20;44.20;;;;;;5034917;28;20709;-34
2022/08/17 13:50:55;;;;;;;4.15;3.47;;;29.30;43.30;;;;;;5028201;28;20021;-33
2022/08/17 13:53:25;;;;;;;4.25;3.33;;;29.20;42.30;;;;;;5027809;28;20022;-32
2022/08/17 13:56:01;;;;;;;4.68;3.60;;;29.20;40.20;;;;;;5029778;28;20079;-33